Página principal
METAR-TAF:

METAR-TAF

Aeroportos :

Wichita Falls Municipal Airport / Sheppard Air Force Base

Wichita Falls, Texas, Estados Unidos

latitude: 33-58-43N, longitude: 098-29-34W, altura: 309 m

Observação actual do tempo

O boletim foi feito há 42 minutos, às 14:52 UTC
Vento 12 kt de noroeste
Temperatura 1°C
Humidade 80%
Pressão 1016 hPa
Visibilidade: 14.5 km
Céu limpo

METAR: KSPS 171452Z AUTO 32012KT 9SM CLR 01/M02 A3000 RMK AO2 SLP163 T00111017 51029 $

Hora: 09:34 (15:34 UTC)

Previsão

O boletim foi feito há 53 minutos, às 14:41 UTC
Previsão válida de 17 às 15 UTC a 18 às 12 UTC
Vento 8 kt de noroeste
Visibilidade: 10 km
Nuvens dispersasa uma altura de 25000 ft
A partir de 17 às 2100 UTC
Vento 9 kt de nor-nordeste
Visibilidade: 10 km
Nuvens dispersasa uma altura de 25000 ft

TAF: KSPS 171441Z 1715/1812 32008KT P6SM SCT250 FM172100 03009KT P6SM SCT250

Observações e previsões do tempo de mais de 4000 aeroportos (mensagens METAR e TAF).

As estações disponíveis são os pontos amarelos e vermelhos sobre o mapa.

Mova o rato sobre o mapa para ver o nome da estação.

Depois clique no ponto para visualizar as observações e previsões meteorológicas.

Para alterar o mapa : clique nos botões verdes com uma cruz preta para aumentar o zoom; no botão verde com uma pitada de zoom; ou nas setas verdes para mapas adjacentes.


METAR-TAF: